Time;durP1;ratioP1;P1;durP2;ratioP2;P2;SDS_P1;SDS_P2;PMS_P1;PMS_P2;Temp;Humidity;BMP_temperature;BMP_pressure;BME280_temperature;BME280_humidity;BME280_pressure;Samples;Min_cycle;Max_cycle;Signal;HPM_P1;HPM_P2
2022/08/12 00:43:33;;;;;;;2.38;2.13;;;18.90;91.10;;;;;;5033150;28;20197;-87
2022/08/12 00:48:43;;;;;;;7.40;1.85;;;18.80;91.10;;;;;;5032660;28;20275;-86
2022/08/12 00:51:09;;;;;;;2.20;1.98;;;18.80;91.10;;;;;;5014700;28;20206;-87
2022/08/12 00:53:36;;;;;;;2.40;2.20;;;18.80;91.60;;;;;;5014505;28;20198;-87
2022/08/12 00:56:03;;;;;;;2.20;1.98;;;18.80;91.50;;;;;;5024254;28;20189;-86
2022/08/12 00:58:31;;;;;;;2.50;2.00;;;18.80;91.30;;;;;;5028364;28;20230;-87
2022/08/12 01:01:03;;;;;;;4.55;2.05;;;18.80;91.20;;;;;;5014300;28;20199;-86
2022/08/12 01:11:53;;;;;;;2.20;1.92;;;18.90;91.10;;;;;;5031942;28;20280;-86
2022/08/12 01:14:24;;;;;;;2.72;1.85;;;18.90;91.20;;;;;;5014165;28;20683;-86
2022/08/12 01:16:54;;;;;;;2.50;2.00;;;18.90;91.20;;;;;;5023985;28;20222;-87
2022/08/12 01:19:22;;;;;;;1.90;1.80;;;18.90;91.40;;;;;;5014000;28;20203;-86
2022/08/12 01:22:16;;;;;;;4.85;2.38;;;18.90;91.20;;;;;;5021134;28;20349;-86
2022/08/12 01:24:48;;;;;;;4.70;1.88;;;18.80;91.50;;;;;;5013842;28;20182;-87
2022/08/12 01:27:18;;;;;;;1.98;1.80;;;18.90;91.50;;;;;;4999843;28;20201;-86
2022/08/12 01:29:47;;;;;;;4.07;2.28;;;18.80;91.50;;;;;;5014199;28;20214;-87
2022/08/12 01:32:14;;;;;;;3.45;2.25;;;18.70;91.50;;;;;;5013633;28;20242;-86
2022/08/12 01:35:14;;;;;;;3.03;1.92;;;18.70;91.70;;;;;;5013835;28;20182;-86
2022/08/12 01:38:10;;;;;;;3.65;2.08;;;18.50;91.80;;;;;;4979820;28;20229;-86
2022/08/12 01:40:39;;;;;;;3.72;1.73;;;18.50;91.90;;;;;;5015461;28;20234;-86
2022/08/12 01:43:08;;;;;;;4.35;2.03;;;18.50;92.30;;;;;;5013836;28;20201;-86
2022/08/12 01:45:58;;;;;;;3.63;2.10;;;18.40;92.20;;;;;;5018274;28;20286;-86
2022/08/12 01:48:38;;;;;;;3.38;2.17;;;18.30;92.50;;;;;;5001512;28;20213;-86
2022/08/12 01:51:12;;;;;;;2.85;2.10;;;18.20;92.50;;;;;;5013468;28;20283;-86
2022/08/12 01:54:03;;;;;;;5.28;2.22;;;18.10;92.50;;;;;;5014112;28;20190;-86
2022/08/12 01:56:38;;;;;;;4.10;2.20;;;18.10;92.70;;;;;;5013979;28;20190;-86
2022/08/12 02:01:55;;;;;;;2.53;2.17;;;18.00;92.80;;;;;;5031932;28;20193;-86
2022/08/12 02:11:16;;;;;;;3.47;2.30;;;17.90;93.00;;;;;;5032588;28;20309;-86
2022/08/12 02:14:00;;;;;;;2.67;2.33;;;17.90;93.20;;;;;;5029680;28;20265;-86
2022/08/12 02:16:47;;;;;;;6.57;2.20;;;17.80;93.50;;;;;;5026042;28;20183;-85
2022/08/12 02:19:38;;;;;;;3.35;2.10;;;17.80;93.70;;;;;;5009981;28;20210;-86
2022/08/12 02:22:37;;;;;;;3.03;2.72;;;17.70;93.70;;;;;;5032368;28;20677;-86
2022/08/12 02:25:08;;;;;;;4.38;2.47;;;17.60;93.80;;;;;;5012113;28;20182;-86
2022/08/12 02:27:38;;;;;;;3.20;2.13;;;17.50;93.70;;;;;;5013376;28;20182;-86
2022/08/12 02:30:09;;;;;;;3.42;2.17;;;17.60;93.70;;;;;;5013029;28;20211;-86
2022/08/12 02:32:38;;;;;;;4.88;2.13;;;17.60;93.80;;;;;;5012291;28;20226;-86
2022/08/12 02:35:13;;;;;;;3.83;2.08;;;17.50;93.80;;;;;;5012855;28;20194;-87
2022/08/12 02:37:41;;;;;;;3.25;2.05;;;17.50;93.90;;;;;;5012663;28;20182;-86
2022/08/12 02:40:10;;;;;;;3.35;2.35;;;17.50;94.10;;;;;;5012321;28;20211;-86
2022/08/12 02:42:43;;;;;;;3.70;2.30;;;17.50;94.00;;;;;;5012963;28;20205;-86
2022/08/12 02:45:13;;;;;;;4.45;2.63;;;17.40;94.10;;;;;;5012902;28;20193;-86
2022/08/12 02:47:41;;;;;;;3.03;2.33;;;17.40;94.00;;;;;;5021058;28;20186;-86
2022/08/12 02:50:13;;;;;;;6.25;2.35;;;17.40;94.30;;;;;;5012006;28;20245;-86
2022/08/12 02:52:40;;;;;;;4.05;2.60;;;17.20;94.50;;;;;;5012144;28;20218;-86
2022/08/12 02:55:18;;;;;;;3.25;2.45;;;17.20;94.70;;;;;;5012279;28;20278;-86
2022/08/12 02:57:45;;;;;;;4.70;2.40;;;17.00;94.80;;;;;;5030820;28;20253;-86
2022/08/12 03:00:14;;;;;;;3.88;2.15;;;17.10;95.10;;;;;;5003865;28;20213;-86
2022/08/12 03:02:45;;;;;;;3.08;2.38;;;17.10;94.60;;;;;;5012330;28;20642;-86
2022/08/12 03:05:14;;;;;;;4.13;2.42;;;17.00;94.50;;;;;;5029809;28;20244;-86
2022/08/12 03:07:48;;;;;;;3.22;2.30;;;17.00;94.60;;;;;;5012414;28;20186;-86
2022/08/12 03:10:17;;;;;;;6.78;2.55;;;17.00;94.50;;;;;;5011647;28;20328;-86
2022/08/12 03:12:44;;;;;;;5.82;2.78;;;17.00;94.80;;;;;;5012693;28;20273;-86
2022/08/12 03:15:15;;;;;;;3.13;2.40;;;17.00;94.70;;;;;;5030475;28;20548;-86
2022/08/12 03:17:49;;;;;;;7.95;2.90;;;17.00;94.90;;;;;;5012320;28;20697;-85
2022/08/12 03:20:17;;;;;;;3.42;3.03;;;17.00;94.60;;;;;;5029800;28;20254;-87
2022/08/12 03:22:45;;;;;;;3.80;2.45;;;16.90;94.70;;;;;;5030024;28;20191;-86
2022/08/12 03:25:25;;;;;;;2.67;2.10;;;16.80;95.20;;;;;;5029971;28;20261;-86
2022/08/12 03:27:56;;;;;;;5.22;2.15;;;16.90;95.20;;;;;;5012353;28;20190;-86
2022/08/12 03:30:27;;;;;;;8.25;2.83;;;16.80;95.40;;;;;;5021450;28;20222;-86
2022/08/12 03:32:57;;;;;;;5.10;2.83;;;16.70;95.50;;;;;;5030100;28;20543;-86
2022/08/12 03:35:26;;;;;;;4.57;2.45;;;16.60;95.30;;;;;;5011615;28;20182;-86
2022/08/12 03:37:55;;;;;;;3.83;2.50;;;16.50;95.40;;;;;;5019204;28;20210;-86
2022/08/12 04:02:41;;;;;;;2.55;2.03;;;16.40;96.20;;;;;;5033641;28;20266;-86
2022/08/12 04:05:12;;;;;;;3.25;2.25;;;16.30;96.30;;;;;;5015815;28;20186;-86
2022/08/12 04:07:39;;;;;;;5.35;2.42;;;16.30;96.50;;;;;;5015370;28;20198;-86
2022/08/12 04:10:06;;;;;;;5.38;2.75;;;16.20;96.50;;;;;;5032704;28;20230;-87
2022/08/12 04:15:23;;;;;;;6.07;2.47;;;16.30;96.40;;;;;;5033695;28;20197;-86
2022/08/12 04:17:50;;;;;;;9.15;2.28;;;16.30;96.60;;;;;;5014379;28;20191;-86
2022/08/12 04:20:18;;;;;;;5.32;2.55;;;16.30;96.70;;;;;;5015055;28;20249;-86
2022/08/12 04:22:44;;;;;;;5.13;2.40;;;16.20;96.80;;;;;;5015369;28;20268;-86
2022/08/12 04:25:11;;;;;;;3.38;2.60;;;16.20;97.00;;;;;;5014923;28;20650;-86
2022/08/12 04:27:38;;;;;;;4.10;2.28;;;16.20;96.60;;;;;;5017831;28;20662;-85
2022/08/12 04:30:06;;;;;;;5.55;2.65;;;16.20;96.90;;;;;;5014615;28;20318;-86
2022/08/12 04:32:34;;;;;;;3.25;2.28;;;16.20;96.90;;;;;;5014272;28;20210;-86
2022/08/12 04:35:02;;;;;;;6.43;2.80;;;16.20;97.10;;;;;;5032643;28;20604;-86
2022/08/12 04:37:29;;;;;;;8.73;2.70;;;16.30;97.10;;;;;;5015575;28;20195;-86
2022/08/12 04:39:56;;;;;;;4.28;2.75;;;16.30;97.50;;;;;;5018463;28;20202;-86
2022/08/12 04:42:25;;;;;;;4.05;2.60;;;16.30;97.90;;;;;;5014713;28;20182;-86
2022/08/12 04:44:51;;;;;;;2.75;2.40;;;16.30;97.70;;;;;;5014907;28;20689;-86
2022/08/12 04:47:20;;;;;;;3.80;2.90;;;16.30;98.00;;;;;;5015348;28;20182;-86
2022/08/12 04:49:46;;;;;;;3.67;2.50;;;16.30;98.00;;;;;;5024135;28;20229;-87
2022/08/12 04:52:13;;;;;;;4.00;2.60;;;16.30;98.50;;;;;;5014982;28;20670;-86
2022/08/12 04:54:39;;;;;;;5.25;2.95;;;16.30;98.20;;;;;;5025805;28;20201;-86
2022/08/12 04:57:08;;;;;;;3.83;2.55;;;16.30;98.30;;;;;;5014509;28;20184;-86
2022/08/12 04:59:35;;;;;;;7.28;2.80;;;16.30;98.50;;;;;;5014378;28;20202;-86
2022/08/12 05:02:01;;;;;;;3.42;2.67;;;16.40;98.20;;;;;;5014357;28;20182;-86
2022/08/12 05:04:28;;;;;;;3.88;2.60;;;16.40;98.10;;;;;;5014433;28;20190;-87
2022/08/12 05:06:53;;;;;;;4.32;2.63;;;16.50;98.00;;;;;;5020183;28;20193;-86
2022/08/12 05:09:19;;;;;;;8.13;3.00;;;16.40;97.90;;;;;;5013642;28;20632;-86
2022/08/12 05:11:49;;;;;;;6.93;2.80;;;16.50;98.00;;;;;;4993410;28;20317;-86
2022/08/12 05:14:15;;;;;;;4.13;2.53;;;16.60;97.60;;;;;;4991516;28;20675;-87
2022/08/12 05:16:41;;;;;;;5.72;3.20;;;16.60;97.60;;;;;;4992692;28;20207;-86
2022/08/12 05:19:07;;;;;;;3.30;2.83;;;16.60;97.70;;;;;;4991271;28;20207;-86
2022/08/12 05:21:33;;;;;;;4.78;3.13;;;16.60;97.40;;;;;;4991345;28;20216;-86
2022/08/12 05:23:59;;;;;;;4.72;2.90;;;16.70;97.30;;;;;;4990701;28;20191;-86
2022/08/12 05:26:26;;;;;;;5.28;2.40;;;16.70;97.10;;;;;;4991087;28;20199;-86
2022/08/12 05:28:53;;;;;;;8.23;2.58;;;16.80;97.10;;;;;;4992548;28;20679;-86
2022/08/12 05:31:20;;;;;;;5.07;2.40;;;16.90;97.00;;;;;;4991795;28;20245;-87
2022/08/12 05:33:46;;;;;;;4.38;2.60;;;17.00;97.30;;;;;;4990978;28;20191;-86
2022/08/12 05:36:14;;;;;;;4.07;2.40;;;17.10;97.10;;;;;;4990632;28;20195;-86
2022/08/12 05:38:55;;;;;;;3.17;2.53;;;17.20;97.00;;;;;;4990631;28;20208;-87
2022/08/12 05:41:31;;;;;;;4.65;2.40;;;17.20;96.70;;;;;;4990844;28;20195;-87
2022/08/12 05:44:03;;;;;;;9.38;2.80;;;17.30;96.80;;;;;;4991297;28;20223;-86
2022/08/12 05:46:31;;;;;;;8.55;3.20;;;17.40;96.80;;;;;;4991168;28;20192;-86
2022/08/12 05:48:59;;;;;;;6.55;2.97;;;17.50;97.00;;;;;;4990906;28;20211;-87
2022/08/12 05:51:27;;;;;;;4.78;2.70;;;17.50;96.80;;;;;;4990823;28;20314;-86
2022/08/12 05:53:54;;;;;;;6.90;2.33;;;17.50;96.40;;;;;;4984789;28;20184;-86
2022/08/12 05:56:32;;;;;;;8.63;2.53;;;17.60;96.50;;;;;;4982877;28;20198;-87
2022/08/12 05:59:00;;;;;;;3.22;2.38;;;17.70;96.40;;;;;;4991062;28;20250;-87
2022/08/12 06:01:27;;;;;;;3.25;2.42;;;17.80;96.40;;;;;;4990514;28;20572;-87
2022/08/12 06:03:53;;;;;;;4.88;2.25;;;17.90;96.30;;;;;;4990701;28;20178;-87
2022/08/12 06:06:20;;;;;;;4.72;2.45;;;18.00;96.10;;;;;;4990906;28;20181;-87
2022/08/12 06:08:52;;;;;;;4.75;2.15;;;18.10;95.40;;;;;;4990632;28;20208;-88
2022/08/12 06:11:27;;;;;;;4.22;2.15;;;18.20;95.50;;;;;;5007621;28;20233;-88
2022/08/12 06:13:54;;;;;;;6.50;2.20;;;18.40;94.90;;;;;;5013692;28;20174;-88
2022/08/12 06:16:22;;;;;;;4.72;2.50;;;18.50;94.80;;;;;;5013584;28;20170;-88
2022/08/12 06:18:48;;;;;;;4.60;2.22;;;18.60;94.50;;;;;;5013584;28;20529;-87
2022/08/12 06:21:22;;;;;;;4.57;2.40;;;18.60;94.30;;;;;;5013454;28;20192;-87
2022/08/12 06:23:50;;;;;;;4.95;2.20;;;18.80;93.70;;;;;;5012905;28;20342;-88
2022/08/12 06:26:19;;;;;;;3.13;2.10;;;18.90;94.00;;;;;;5031319;28;20174;-89
2022/08/12 06:28:50;;;;;;;6.97;2.55;;;19.00;94.00;;;;;;5013272;28;20203;-89
2022/08/12 06:31:18;;;;;;;4.90;1.95;;;19.20;93.10;;;;;;5013222;28;20251;-88
2022/08/12 06:33:46;;;;;;;6.13;2.03;;;19.20;93.20;;;;;;5013662;28;20167;-88
2022/08/12 06:36:15;;;;;;;2.83;2.20;;;19.40;92.60;;;;;;5013899;28;20220;-88
2022/08/12 06:38:42;;;;;;;3.13;2.00;;;19.50;92.30;;;;;;5013420;28;20202;-88
2022/08/12 06:43:55;;;;;;;3.22;2.10;;;19.70;92.30;;;;;;5031103;28;20220;-87
2022/08/12 06:46:23;;;;;;;3.53;2.10;;;19.80;92.70;;;;;;5013370;28;20182;-88
2022/08/12 06:48:49;;;;;;;5.25;2.40;;;19.90;93.00;;;;;;5030339;28;20210;-88
2022/08/12 06:51:18;;;;;;;5.40;2.38;;;19.90;93.30;;;;;;5013193;28;20214;-88
2022/08/12 06:53:44;;;;;;;5.20;2.30;;;20.00;93.00;;;;;;5030926;28;20271;-88
2022/08/12 06:56:10;;;;;;;8.73;2.60;;;20.10;92.70;;;;;;5022530;28;20662;-87
2022/08/12 06:58:38;;;;;;;2.97;2.15;;;20.10;92.80;;;;;;5008955;28;20210;-88
2022/08/12 07:01:07;;;;;;;3.67;2.28;;;20.20;93.00;;;;;;5012931;28;20620;-88
2022/08/12 07:03:33;;;;;;;2.70;2.17;;;20.30;92.70;;;;;;5012572;28;20276;-89
2022/08/12 07:06:04;;;;;;;4.63;2.20;;;20.40;92.80;;;;;;5013656;28;20253;-88
2022/08/12 07:08:34;;;;;;;3.22;2.03;;;20.50;92.70;;;;;;5013095;28;20641;-87
2022/08/12 07:11:08;;;;;;;4.13;1.90;;;20.60;92.10;;;;;;5012666;28;20230;-88
2022/08/12 07:13:43;;;;;;;5.85;2.33;;;20.70;92.10;;;;;;5030792;28;20233;-89
2022/08/12 07:16:15;;;;;;;10.07;2.97;;;20.80;92.00;;;;;;5013344;28;20162;-88
2022/08/12 07:18:42;;;;;;;5.47;2.50;;;21.00;91.80;;;;;;5013022;28;20245;-88
2022/08/12 07:21:09;;;;;;;5.80;2.38;;;21.10;91.50;;;;;;5012403;28;20666;-87
2022/08/12 07:23:37;;;;;;;4.20;2.25;;;21.30;91.40;;;;;;5030004;28;20238;-87
2022/08/12 07:26:07;;;;;;;3.90;2.17;;;21.40;91.20;;;;;;5012332;28;20183;-86
2022/08/12 07:28:38;;;;;;;6.18;2.45;;;21.60;90.90;;;;;;5029844;28;20206;-87
2022/08/12 07:31:08;;;;;;;2.65;1.88;;;21.80;90.50;;;;;;5012119;28;20552;-87
2022/08/12 07:33:38;;;;;;;5.38;2.10;;;21.90;90.70;;;;;;5011870;28;20167;-87
2022/08/12 07:36:09;;;;;;;5.63;2.30;;;22.20;90.10;;;;;;5014579;28;20174;-87
2022/08/12 07:38:41;;;;;;;4.70;2.38;;;22.30;89.70;;;;;;4995970;28;20203;-87
2022/08/12 07:41:12;;;;;;;5.75;1.95;;;22.60;90.00;;;;;;4996175;28;20279;-86
2022/08/12 07:43:50;;;;;;;6.32;2.15;;;22.80;88.60;;;;;;4996205;28;20237;-88
2022/08/12 07:46:19;;;;;;;5.70;2.28;;;23.00;88.80;;;;;;4995779;28;20190;-87
2022/08/12 07:48:51;;;;;;;9.13;2.00;;;23.10;86.60;;;;;;4995426;28;20207;-86
2022/08/12 07:51:20;;;;;;;5.65;1.98;;;23.30;85.70;;;;;;4995770;28;20199;-87
2022/08/12 07:53:47;;;;;;;2.70;1.83;;;23.40;86.00;;;;;;4996012;28;20167;-87
2022/08/12 07:56:14;;;;;;;3.47;1.65;;;23.50;85.50;;;;;;4995844;28;20254;-87
2022/08/12 07:58:41;;;;;;;6.32;1.80;;;23.70;85.30;;;;;;5011409;28;20297;-87
2022/08/12 08:01:14;;;;;;;4.85;2.45;;;23.80;84.60;;;;;;5015678;28;20182;-87
2022/08/12 08:06:32;;;;;;;2.80;1.50;;;24.10;83.90;;;;;;5033460;28;20174;-87
2022/08/12 08:08:59;;;;;;;3.00;1.70;;;24.40;83.70;;;;;;5015307;28;20202;-87
2022/08/12 08:14:10;;;;;;;5.70;1.65;;;24.70;83.00;;;;;;4994175;28;20175;-87
2022/08/12 08:16:38;;;;;;;3.53;1.80;;;24.80;81.60;;;;;;4992312;28;20638;-87
2022/08/12 08:19:03;;;;;;;3.22;1.65;;;25.00;80.00;;;;;;4992106;28;20676;-87
2022/08/12 08:21:32;;;;;;;3.22;1.80;;;25.10;80.00;;;;;;4992089;28;20222;-86
2022/08/12 08:24:13;;;;;;;2.92;1.50;;;25.20;80.40;;;;;;4994008;28;20160;-87
2022/08/12 08:26:44;;;;;;;2.33;1.40;;;25.30;77.80;;;;;;4992429;28;20168;-86
2022/08/12 08:29:11;;;;;;;1.58;1.25;;;25.50;76.40;;;;;;4992120;28;20203;-86
2022/08/12 08:31:42;;;;;;;3.67;1.50;;;25.60;76.20;;;;;;4991891;28;20254;-86
2022/08/12 08:34:12;;;;;;;3.90;1.60;;;25.70;75.80;;;;;;4991805;28;20245;-87
2022/08/12 08:36:39;;;;;;;2.60;1.48;;;25.80;73.70;;;;;;4991831;28;20191;-87
2022/08/12 08:39:07;;;;;;;2.85;1.48;;;26.00;74.70;;;;;;4992190;28;20204;-87
2022/08/12 08:44:17;;;;;;;3.33;1.60;;;26.20;74.10;;;;;;4993644;28;20638;-87
2022/08/12 08:46:43;;;;;;;4.55;1.50;;;26.30;71.90;;;;;;4991079;28;20183;-87
2022/08/12 08:49:10;;;;;;;5.35;1.40;;;26.40;72.30;;;;;;4991449;28;20221;-87
2022/08/12 08:51:37;;;;;;;1.80;1.15;;;26.50;71.90;;;;;;4993248;28;20227;-87
2022/08/12 08:54:05;;;;;;;3.47;1.58;;;26.60;71.30;;;;;;4991347;28;20640;-87
2022/08/12 08:56:32;;;;;;;4.32;1.25;;;26.70;70.70;;;;;;4991473;28;20180;-88
2022/08/12 08:58:58;;;;;;;4.78;1.40;;;26.90;69.50;;;;;;4991298;28;20245;-87
2022/08/12 09:01:25;;;;;;;1.05;0.90;;;27.00;68.80;;;;;;4991614;28;20168;-87
2022/08/12 09:03:51;;;;;;;4.07;1.38;;;27.10;68.10;;;;;;4991036;28;20215;-87
2022/08/12 09:06:19;;;;;;;3.45;1.40;;;27.20;66.40;;;;;;4991418;28;20234;-88
2022/08/12 09:08:45;;;;;;;4.43;1.30;;;27.30;66.70;;;;;;4991497;28;20302;-88
2022/08/12 09:13:55;;;;;;;3.88;1.25;;;27.30;65.10;;;;;;4992752;28;20595;-89
2022/08/12 09:16:21;;;;;;;1.20;1.10;;;27.40;67.10;;;;;;4991324;28;20270;-88
2022/08/12 09:18:48;;;;;;;5.32;1.20;;;27.50;67.30;;;;;;4991328;28;20299;-88
2022/08/12 09:21:13;;;;;;;1.38;1.10;;;27.60;66.20;;;;;;4991737;28;20601;-86
2022/08/12 09:23:40;;;;;;;1.85;1.25;;;27.70;65.60;;;;;;4991134;28;20180;-87
2022/08/12 09:26:08;;;;;;;9.57;1.30;;;27.70;65.70;;;;;;4991227;28;20180;-88
2022/08/12 09:28:35;;;;;;;2.58;1.13;;;27.80;67.40;;;;;;4991113;28;20211;-88
2022/08/12 09:31:04;;;;;;;2.40;1.13;;;27.90;64.90;;;;;;4991224;28;20206;-89
2022/08/12 09:33:32;;;;;;;2.47;0.95;;;27.90;66.30;;;;;;4991010;28;20682;-88
2022/08/12 09:36:04;;;;;;;1.95;1.05;;;28.00;65.50;;;;;;4991276;28;20176;-88
2022/08/12 09:38:30;;;;;;;3.88;1.15;;;28.10;65.00;;;;;;4991120;28;20210;-86
2022/08/12 09:40:56;;;;;;;2.08;1.40;;;28.10;66.20;;;;;;4990870;28;20216;-88
2022/08/12 09:46:14;;;;;;;2.55;1.20;;;28.30;64.10;;;;;;4992507;28;20203;-88
2022/08/12 09:48:40;;;;;;;2.05;1.23;;;28.40;64.00;;;;;;4990706;28;20623;-88
2022/08/12 09:51:07;;;;;;;5.55;1.40;;;28.40;62.80;;;;;;4990928;28;20318;-90
2022/08/12 09:53:33;;;;;;;1.55;1.10;;;28.40;62.80;;;;;;4991340;28;20176;-88
2022/08/12 09:56:01;;;;;;;4.85;1.27;;;28.40;64.00;;;;;;4990676;28;20214;-87
2022/08/12 09:58:28;;;;;;;2.05;1.02;;;28.40;62.70;;;;;;4989554;28;20215;-87
2022/08/12 10:00:58;;;;;;;2.13;1.20;;;28.40;61.00;;;;;;4992502;28;20210;-88
2022/08/12 10:03:26;;;;;;;1.90;1.23;;;28.40;64.30;;;;;;4991131;28;20176;-88
2022/08/12 10:05:52;;;;;;;1.77;1.20;;;28.50;64.60;;;;;;4990826;28;20188;-86
2022/08/12 10:08:20;;;;;;;5.10;1.70;;;28.60;65.10;;;;;;4991855;28;20208;-87
2022/08/12 10:13:41;;;;;;;4.18;1.20;;;28.80;64.90;;;;;;4991957;28;20548;-87
2022/08/12 10:16:11;;;;;;;4.72;1.23;;;28.80;62.90;;;;;;4990379;28;20187;-87
2022/08/12 10:18:41;;;;;;;1.50;1.10;;;28.90;64.40;;;;;;4990381;28;20680;-89
2022/08/12 10:21:08;;;;;;;2.60;1.10;;;29.00;62.90;;;;;;4990498;28;20191;-88
2022/08/12 10:23:35;;;;;;;5.40;1.30;;;28.90;62.30;;;;;;4991971;28;20156;-87
2022/08/12 10:31:30;;;;;;;6.45;1.25;;;28.90;63.90;;;;;;4991911;28;20254;-88
2022/08/12 10:33:56;;;;;;;3.35;1.20;;;29.10;63.40;;;;;;4990555;28;20745;-86
2022/08/12 10:36:23;;;;;;;5.20;1.20;;;29.10;63.10;;;;;;4990379;28;20172;-88
2022/08/12 10:38:50;;;;;;;1.35;1.10;;;29.20;63.60;;;;;;4990274;28;20206;-88
2022/08/12 10:44:11;;;;;;;1.17;0.93;;;29.30;62.50;;;;;;4991851;28;20215;-87
2022/08/12 10:46:38;;;;;;;3.78;1.40;;;29.30;61.70;;;;;;4990621;28;20297;-87
2022/08/12 10:49:04;;;;;;;3.63;1.50;;;29.40;62.00;;;;;;4990451;28;20214;-88
2022/08/12 10:51:30;;;;;;;4.65;1.30;;;29.50;62.60;;;;;;4989948;28;20199;-87
2022/08/12 10:53:56;;;;;;;1.83;1.08;;;29.60;60.60;;;;;;4990077;28;20544;-88
2022/08/12 10:56:22;;;;;;;4.30;1.30;;;29.70;60.50;;;;;;4990168;28;20655;-88
2022/08/12 10:58:48;;;;;;;2.05;1.00;;;29.70;60.50;;;;;;4989961;28;20204;-87
2022/08/12 11:01:17;;;;;;;3.53;1.27;;;29.80;60.20;;;;;;4990072;28;20172;-88
2022/08/12 11:03:42;;;;;;;3.00;1.40;;;29.90;60.60;;;;;;4971859;28;20167;-88
2022/08/12 11:06:10;;;;;;;2.13;1.13;;;29.80;60.10;;;;;;4970707;28;20168;-87
2022/08/12 11:08:38;;;;;;;2.22;1.05;;;29.80;60.30;;;;;;4970763;28;20210;-87
2022/08/12 11:11:07;;;;;;;5.72;1.40;;;29.80;60.30;;;;;;4974154;28;20671;-88
2022/08/12 11:13:36;;;;;;;4.97;1.30;;;29.70;59.80;;;;;;4974972;28;20211;-88
2022/08/12 11:16:05;;;;;;;1.35;1.15;;;29.80;60.00;;;;;;4974614;28;20484;-88
2022/08/12 11:18:32;;;;;;;3.25;1.30;;;29.70;60.10;;;;;;4974947;28;20604;-88
2022/08/12 11:20:59;;;;;;;3.97;1.40;;;29.80;61.30;;;;;;5004590;28;20194;-87
2022/08/12 11:23:25;;;;;;;1.20;1.08;;;29.80;59.70;;;;;;4994956;28;20624;-88
2022/08/12 11:25:51;;;;;;;2.92;1.42;;;29.80;60.80;;;;;;4993730;28;20179;-88
2022/08/12 11:28:17;;;;;;;2.85;1.10;;;29.90;61.70;;;;;;4995159;28;20203;-87
2022/08/12 11:30:44;;;;;;;2.65;1.27;;;30.00;61.10;;;;;;4992509;28;20266;-87
2022/08/12 11:33:11;;;;;;;2.13;1.20;;;30.20;60.10;;;;;;4992573;28;20278;-88
2022/08/12 11:35:40;;;;;;;2.13;1.27;;;30.20;59.50;;;;;;4994410;28;20174;-87
2022/08/12 11:38:06;;;;;;;3.45;1.30;;;30.10;59.90;;;;;;4993280;28;20715;-87
2022/08/12 11:40:32;;;;;;;3.08;1.30;;;30.00;59.90;;;;;;4993851;28;20222;-87
2022/08/12 11:42:59;;;;;;;2.67;1.25;;;29.90;59.40;;;;;;4993752;28;20199;-88
2022/08/12 11:45:26;;;;;;;2.58;1.05;;;30.00;59.40;;;;;;4994066;28;20234;-87
2022/08/12 11:47:53;;;;;;;1.98;1.33;;;30.10;58.90;;;;;;4993807;28;20234;-88
2022/08/12 11:50:19;;;;;;;4.00;1.17;;;30.20;60.50;;;;;;4979064;28;20211;-87
2022/08/12 11:52:49;;;;;;;3.75;1.05;;;30.30;60.50;;;;;;4974247;28;20215;-90
2022/08/12 11:55:17;;;;;;;4.10;1.33;;;30.40;59.70;;;;;;4993697;28;20198;-86
2022/08/12 11:57:50;;;;;;;2.45;1.00;;;30.50;59.60;;;;;;4993904;28;20187;-86
2022/08/12 12:00:17;;;;;;;4.30;1.15;;;30.50;58.50;;;;;;4993063;28;20207;-87
2022/08/12 12:02:43;;;;;;;4.18;1.20;;;30.40;58.40;;;;;;4993460;28;20174;-87
2022/08/12 12:05:09;;;;;;;2.75;1.13;;;30.30;58.60;;;;;;4992807;28;20195;-88
2022/08/12 12:07:39;;;;;;;3.25;1.00;;;30.30;58.50;;;;;;4994314;28;20226;-87
2022/08/12 12:10:06;;;;;;;2.05;0.88;;;30.40;57.60;;;;;;4999561;28;20697;-88
2022/08/12 12:12:31;;;;;;;4.15;1.10;;;30.40;57.50;;;;;;5008146;28;20222;-88
2022/08/12 12:14:57;;;;;;;4.30;1.13;;;30.40;56.80;;;;;;4996372;28;20534;-88
2022/08/12 12:17:24;;;;;;;2.40;1.10;;;30.40;57.40;;;;;;4996461;28;20217;-87
2022/08/12 12:19:51;;;;;;;1.27;1.13;;;30.40;58.00;;;;;;4996235;28;20236;-88
2022/08/12 12:22:18;;;;;;;2.67;1.15;;;30.40;57.40;;;;;;5013285;28;20250;-88
2022/08/12 12:24:46;;;;;;;2.53;1.38;;;30.50;57.90;;;;;;5013792;28;20159;-88
2022/08/12 12:27:12;;;;;;;1.75;1.00;;;30.50;57.40;;;;;;4996175;28;20175;-88
2022/08/12 12:29:37;;;;;;;2.90;1.20;;;30.50;57.80;;;;;;4996128;28;20206;-88
2022/08/12 12:32:04;;;;;;;3.53;1.05;;;30.60;57.80;;;;;;4996081;28;20214;-87
2022/08/12 12:34:29;;;;;;;1.40;0.90;;;30.60;58.30;;;;;;4995902;28;20261;-86
2022/08/12 12:36:55;;;;;;;2.25;1.15;;;30.60;55.90;;;;;;4995866;28;20250;-87
2022/08/12 12:39:21;;;;;;;2.75;0.98;;;30.50;56.60;;;;;;4995679;28;20198;-86
2022/08/12 12:41:48;;;;;;;1.77;0.90;;;30.60;57.00;;;;;;4995851;28;20179;-86
2022/08/12 12:44:13;;;;;;;3.55;1.00;;;30.70;56.70;;;;;;5013454;28;20171;-87
2022/08/12 12:46:39;;;;;;;1.52;0.90;;;30.70;56.20;;;;;;4996733;28;20797;-87
2022/08/12 12:49:05;;;;;;;2.17;0.98;;;30.80;56.40;;;;;;4996201;28;20570;-87
2022/08/12 12:51:30;;;;;;;2.20;1.05;;;30.80;55.20;;;;;;4995769;28;20201;-88
2022/08/12 12:53:56;;;;;;;2.35;1.10;;;30.90;55.30;;;;;;4996241;28;20166;-87
2022/08/12 12:56:23;;;;;;;4.30;1.10;;;30.90;56.60;;;;;;4996080;28;20167;-87
2022/08/12 12:58:50;;;;;;;1.23;0.98;;;31.00;55.80;;;;;;4995786;28;20265;-87
2022/08/12 13:01:20;;;;;;;1.52;0.90;;;31.00;56.00;;;;;;4995885;28;20171;-87
2022/08/12 13:03:47;;;;;;;3.60;1.20;;;31.00;56.00;;;;;;5013298;28;20167;-87
2022/08/12 13:06:13;;;;;;;2.88;1.00;;;31.20;56.20;;;;;;4996119;28;20200;-87
2022/08/12 13:08:39;;;;;;;1.67;1.20;;;31.20;56.00;;;;;;5020434;28;20201;-88
2022/08/12 13:11:06;;;;;;;3.47;1.13;;;31.20;55.00;;;;;;5015192;28;20226;-87
2022/08/12 13:13:35;;;;;;;1.63;1.02;;;31.30;55.70;;;;;;5015233;28;20170;-86
2022/08/12 13:16:02;;;;;;;2.72;0.88;;;31.30;55.10;;;;;;5015255;28;20643;-87
2022/08/12 13:18:36;;;;;;;1.92;1.20;;;31.40;55.30;;;;;;5014850;28;20611;-87
2022/08/12 13:21:07;;;;;;;1.55;0.90;;;31.40;55.30;;;;;;5015230;28;20641;-87
2022/08/12 13:23:34;;;;;;;2.10;0.93;;;31.50;56.80;;;;;;5015381;28;20201;-89
2022/08/12 13:26:00;;;;;;;4.68;1.00;;;31.50;55.30;;;;;;5032901;28;20629;-88
2022/08/12 13:28:29;;;;;;;0.75;0.70;;;31.50;56.30;;;;;;5015167;28;20206;-89
2022/08/12 13:30:56;;;;;;;6.63;1.17;;;31.60;57.30;;;;;;5015658;28;20672;-87
2022/08/12 13:33:25;;;;;;;1.30;0.90;;;31.70;57.20;;;;;;5015378;28;20170;-89
2022/08/12 13:35:57;;;;;;;3.70;0.95;;;31.70;56.00;;;;;;5014623;28;20174;-88
2022/08/12 13:38:37;;;;;;;2.15;0.80;;;31.60;56.40;;;;;;5032289;28;20201;-88
2022/08/12 13:41:04;;;;;;;2.03;0.98;;;31.70;55.50;;;;;;5032323;28;20224;-89
2022/08/12 13:43:31;;;;;;;2.05;1.10;;;31.60;55.60;;;;;;5014234;28;20703;-87
2022/08/12 13:45:58;;;;;;;1.00;0.90;;;31.50;56.40;;;;;;5014154;28;20182;-87
2022/08/12 13:48:24;;;;;;;3.20;0.98;;;31.50;55.20;;;;;;5014247;28;20213;-89
2022/08/12 13:50:49;;;;;;;1.90;0.80;;;31.70;55.80;;;;;;5014452;28;20182;-88
2022/08/12 13:53:17;;;;;;;2.85;1.05;;;31.90;57.40;;;;;;5014456;28;20170;-89
2022/08/12 13:55:46;;;;;;;1.05;0.85;;;31.90;56.10;;;;;;5013991;28;20197;-87
2022/08/12 13:58:15;;;;;;;1.10;0.75;;;32.00;55.00;;;;;;5014157;28;20184;-88
2022/08/12 14:00:50;;;;;;;2.90;1.17;;;31.90;56.80;;;;;;5013666;28;20193;-88
2022/08/12 14:03:17;;;;;;;1.90;1.10;;;32.00;55.60;;;;;;5014302;28;20166;-88
2022/08/12 14:05:43;;;;;;;1.17;0.90;;;32.00;55.10;;;;;;5031721;28;20212;-88
2022/08/12 14:08:12;;;;;;;1.30;1.00;;;32.00;55.70;;;;;;5014187;28;20193;-89
2022/08/12 14:10:47;;;;;;;1.25;0.80;;;32.00;56.80;;;;;;5013757;28;20232;-91
2022/08/12 14:13:42;;;;;;;1.80;0.90;;;31.90;55.10;;;;;;5013792;28;20209;-90
2022/08/12 14:16:09;;;;;;;6.47;0.75;;;31.80;56.80;;;;;;5000953;28;20197;-90
2022/08/12 14:18:41;;;;;;;3.45;0.82;;;31.70;54.50;;;;;;5013744;28;20228;-91
2022/08/12 14:21:09;;;;;;;1.50;0.68;;;31.70;55.30;;;;;;5014029;28;20174;-89
2022/08/12 14:23:37;;;;;;;1.13;0.70;;;31.60;55.90;;;;;;5014406;28;20185;-88
2022/08/12 14:26:06;;;;;;;2.40;0.70;;;31.60;55.50;;;;;;5014068;28;20185;-89
2022/08/12 14:28:33;;;;;;;1.55;0.70;;;31.60;56.00;;;;;;5031427;28;20197;-88
2022/08/12 14:31:05;;;;;;;1.35;0.63;;;31.60;56.00;;;;;;5014158;28;20209;-88
2022/08/12 14:33:33;;;;;;;0.88;0.63;;;31.50;56.00;;;;;;5013937;28;20170;-88
2022/08/12 14:36:01;;;;;;;1.02;0.73;;;31.50;56.50;;;;;;5013393;28;20202;-89
2022/08/12 14:38:33;;;;;;;3.50;0.70;;;31.60;55.60;;;;;;5012818;28;20201;-87
2022/08/12 14:41:01;;;;;;;5.03;0.70;;;31.50;55.60;;;;;;5030610;28;20204;-88
2022/08/12 14:43:33;;;;;;;1.00;0.70;;;31.50;56.00;;;;;;5012944;28;20264;-88
2022/08/12 14:46:11;;;;;;;3.53;0.60;;;31.40;55.00;;;;;;5005611;28;20183;-88
2022/08/12 14:48:45;;;;;;;1.10;0.63;;;31.40;56.00;;;;;;4993664;28;20276;-88
2022/08/12 14:51:12;;;;;;;1.60;0.80;;;31.40;55.70;;;;;;4993626;28;20270;-88
2022/08/12 14:53:40;;;;;;;3.28;0.73;;;31.30;55.90;;;;;;4993824;28;20249;-88